Kap Morris Jesup

KL  EN  DA
ASIAQ
Weather Now GREENLAND SURVEY
Updated [WGT/WGST] Temperature [°C] Wind [m/s] Air pressure [hPa] Relative humidity [%] Precipitation [mm]
Present Wind chill Speed Max
30.11 17:00-23,0-37,49,8 ⇒12,9101170n/a
30.11 16:00-22,7-37,310,3 ⇒12,9101172n/a
30.11 15:00-22,5-37,310,8 ⇒14,9101172n/a
30.11 14:00-22,6-37,110,3 ⇒13,4101175n/a
30.11 13:00-22,7-39,013,9 ⇒17,5101076n/a
30.11 12:00-23,2-38,511,3 ⇒15,4101074n/a
30.11 11:00-23,4-40,013,9 ⇒17,5101076n/a
30.11 10:00-23,4-39,011,8 ⇒14,4100975n/a
30.11 09:00-23,0-37,910,8 ⇒14,9100973n/a
30.11 08:00-22,1-36,710,8 ⇒13,9100872n/a
30.11 07:00-22,3-37,010,8 ⇒13,9100871n/a
30.11 06:00-22,4-36,69,8 ⇒13,9100775n/a
30.11 05:00-21,7-38,114,9 ⇒18,0100676n/a
30.11 04:00-22,1-38,614,9 ⇒20,1100575n/a
30.11 03:00-22,3-38,914,9 ⇒20,1100570n/a
30.11 02:00-24,7-42,214,9 ⇒18,5100568n/a
30.11 01:00-25,8-42,211,8 ⇒14,9100464n/a
30.11 00:00-25,7-40,38,8 ⇒12,4100457n/a
29.11 23:00-25,5-36,95,1 ⇒7,2100460n/a
29.11 22:00-25,0-37,86,7 ⇒7,7100360n/a
29.11 21:00-24,2-39,210,3 ⇒12,4100358n/a
29.11 20:00-24,4-39,510,3 ⇒12,9100363n/a
29.11 19:00-24,1-39,410,8 ⇒13,9100362n/a
29.11 18:00-23,1-39,413,4 ⇒17,0100261n/a
29.11 17:00-23,4-39,312,4 ⇒15,4100260n/a
Position: (83.6561111111,-33.3738888888)

[Back]